sensor_id;sensor_type;location;lat;lon;timestamp;P1;durP1;ratioP1;P2;durP2;ratioP2
3663;SDS011;1848;51.042;7.066;2022-07-11T00:00:01;5.33;;;4.50;;
3663;SDS011;1848;51.042;7.066;2022-07-11T00:02:29;6.50;;;4.93;;
3663;SDS011;1848;51.042;7.066;2022-07-11T00:04:56;4.93;;;4.33;;
3663;SDS011;1848;51.042;7.066;2022-07-11T00:07:22;7.50;;;4.73;;
3663;SDS011;1848;51.042;7.066;2022-07-11T00:09:49;5.23;;;4.83;;
3663;SDS011;1848;51.042;7.066;2022-07-11T00:12:15;5.40;;;4.90;;
3663;SDS011;1848;51.042;7.066;2022-07-11T00:14:41;5.60;;;4.90;;
3663;SDS011;1848;51.042;7.066;2022-07-11T00:17:08;5.10;;;4.70;;
3663;SDS011;1848;51.042;7.066;2022-07-11T00:19:36;5.20;;;4.60;;
3663;SDS011;1848;51.042;7.066;2022-07-11T00:22:03;8.43;;;5.50;;
3663;SDS011;1848;51.042;7.066;2022-07-11T00:24:30;4.77;;;4.37;;
3663;SDS011;1848;51.042;7.066;2022-07-11T00:26:57;5.77;;;5.00;;
3663;SDS011;1848;51.042;7.066;2022-07-11T00:29:23;8.53;;;4.80;;
3663;SDS011;1848;51.042;7.066;2022-07-11T00:31:50;8.10;;;5.40;;
3663;SDS011;1848;51.042;7.066;2022-07-11T00:34:16;5.60;;;5.10;;
3663;SDS011;1848;51.042;7.066;2022-07-11T00:36:43;6.17;;;5.57;;
3663;SDS011;1848;51.042;7.066;2022-07-11T00:39:10;4.80;;;4.40;;
3663;SDS011;1848;51.042;7.066;2022-07-11T00:41:37;5.60;;;5.10;;
3663;SDS011;1848;51.042;7.066;2022-07-11T00:44:03;5.33;;;4.83;;
3663;SDS011;1848;51.042;7.066;2022-07-11T00:46:30;5.33;;;4.57;;
3663;SDS011;1848;51.042;7.066;2022-07-11T00:48:57;6.40;;;5.17;;
3663;SDS011;1848;51.042;7.066;2022-07-11T00:51:25;5.63;;;4.93;;
3663;SDS011;1848;51.042;7.066;2022-07-11T00:53:53;5.90;;;5.37;;
3663;SDS011;1848;51.042;7.066;2022-07-11T00:56:23;6.40;;;5.80;;
3663;SDS011;1848;51.042;7.066;2022-07-11T00:58:51;6.47;;;5.83;;
3663;SDS011;1848;51.042;7.066;2022-07-11T01:01:19;7.10;;;5.70;;
3663;SDS011;1848;51.042;7.066;2022-07-11T01:03:45;8.43;;;5.80;;
3663;SDS011;1848;51.042;7.066;2022-07-11T01:06:12;7.67;;;5.60;;
3663;SDS011;1848;51.042;7.066;2022-07-11T01:08:39;6.40;;;5.20;;
3663;SDS011;1848;51.042;7.066;2022-07-11T01:11:07;6.20;;;5.57;;
3663;SDS011;1848;51.042;7.066;2022-07-11T01:13:45;5.77;;;5.27;;
3663;SDS011;1848;51.042;7.066;2022-07-11T01:16:14;7.90;;;5.50;;
3663;SDS011;1848;51.042;7.066;2022-07-11T01:18:42;9.40;;;5.77;;
3663;SDS011;1848;51.042;7.066;2022-07-11T01:21:17;6.00;;;5.40;;
3663;SDS011;1848;51.042;7.066;2022-07-11T01:23:54;5.60;;;5.10;;
3663;SDS011;1848;51.042;7.066;2022-07-11T01:26:21;6.90;;;5.60;;
3663;SDS011;1848;51.042;7.066;2022-07-11T01:28:49;4.97;;;4.40;;
3663;SDS011;1848;51.042;7.066;2022-07-11T01:31:16;6.53;;;5.93;;
3663;SDS011;1848;51.042;7.066;2022-07-11T01:33:43;6.60;;;6.03;;
3663;SDS011;1848;51.042;7.066;2022-07-11T01:36:11;5.87;;;5.37;;
3663;SDS011;1848;51.042;7.066;2022-07-11T01:38:39;8.80;;;5.50;;
3663;SDS011;1848;51.042;7.066;2022-07-11T01:41:05;6.03;;;5.50;;
3663;SDS011;1848;51.042;7.066;2022-07-11T01:43:33;6.47;;;5.77;;
3663;SDS011;1848;51.042;7.066;2022-07-11T01:45:59;8.07;;;5.53;;
3663;SDS011;1848;51.042;7.066;2022-07-11T01:48:26;7.70;;;5.47;;
3663;SDS011;1848;51.042;7.066;2022-07-11T01:50:53;6.07;;;4.93;;
3663;SDS011;1848;51.042;7.066;2022-07-11T01:53:19;6.20;;;4.93;;
3663;SDS011;1848;51.042;7.066;2022-07-11T01:55:47;6.53;;;4.70;;
3663;SDS011;1848;51.042;7.066;2022-07-11T01:58:33;6.13;;;5.30;;
3663;SDS011;1848;51.042;7.066;2022-07-11T02:01:00;5.23;;;4.70;;
3663;SDS011;1848;51.042;7.066;2022-07-11T02:03:26;6.27;;;5.10;;
3663;SDS011;1848;51.042;7.066;2022-07-11T02:05:53;6.00;;;5.30;;
3663;SDS011;1848;51.042;7.066;2022-07-11T02:08:19;6.70;;;5.43;;
3663;SDS011;1848;51.042;7.066;2022-07-11T02:10:49;9.83;;;5.60;;
3663;SDS011;1848;51.042;7.066;2022-07-11T02:13:18;6.67;;;5.97;;
3663;SDS011;1848;51.042;7.066;2022-07-11T02:15:46;6.30;;;5.50;;
3663;SDS011;1848;51.042;7.066;2022-07-11T02:18:14;5.90;;;5.40;;
3663;SDS011;1848;51.042;7.066;2022-07-11T02:20:41;6.43;;;5.63;;
3663;SDS011;1848;51.042;7.066;2022-07-11T02:23:08;9.83;;;6.00;;
3663;SDS011;1848;51.042;7.066;2022-07-11T02:25:35;6.80;;;5.97;;
3663;SDS011;1848;51.042;7.066;2022-07-11T02:28:05;6.90;;;5.07;;
3663;SDS011;1848;51.042;7.066;2022-07-11T02:30:35;7.67;;;5.10;;
3663;SDS011;1848;51.042;7.066;2022-07-11T02:33:03;7.17;;;5.83;;
3663;SDS011;1848;51.042;7.066;2022-07-11T02:35:31;7.40;;;5.97;;
3663;SDS011;1848;51.042;7.066;2022-07-11T02:37:57;10.13;;;6.17;;
3663;SDS011;1848;51.042;7.066;2022-07-11T02:40:23;6.97;;;5.83;;
3663;SDS011;1848;51.042;7.066;2022-07-11T02:42:50;7.00;;;6.40;;
3663;SDS011;1848;51.042;7.066;2022-07-11T02:45:16;7.23;;;6.43;;
3663;SDS011;1848;51.042;7.066;2022-07-11T02:47:43;8.23;;;5.90;;
3663;SDS011;1848;51.042;7.066;2022-07-11T02:50:10;7.37;;;6.57;;
3663;SDS011;1848;51.042;7.066;2022-07-11T02:52:39;8.03;;;6.50;;
3663;SDS011;1848;51.042;7.066;2022-07-11T02:55:07;9.37;;;6.00;;
3663;SDS011;1848;51.042;7.066;2022-07-11T02:57:35;9.50;;;6.13;;
3663;SDS011;1848;51.042;7.066;2022-07-11T03:00:04;7.50;;;6.33;;
3663;SDS011;1848;51.042;7.066;2022-07-11T03:02:33;6.90;;;6.13;;
3663;SDS011;1848;51.042;7.066;2022-07-11T03:04:59;8.63;;;6.83;;
3663;SDS011;1848;51.042;7.066;2022-07-11T03:07:26;7.77;;;6.10;;
3663;SDS011;1848;51.042;7.066;2022-07-11T03:09:54;12.57;;;7.00;;
3663;SDS011;1848;51.042;7.066;2022-07-11T03:12:21;11.77;;;7.30;;
3663;SDS011;1848;51.042;7.066;2022-07-11T03:14:48;7.93;;;6.47;;
3663;SDS011;1848;51.042;7.066;2022-07-11T03:17:18;7.83;;;5.93;;
3663;SDS011;1848;51.042;7.066;2022-07-11T03:19:44;8.27;;;6.37;;
3663;SDS011;1848;51.042;7.066;2022-07-11T03:22:13;7.03;;;6.23;;
3663;SDS011;1848;51.042;7.066;2022-07-11T03:24:41;13.37;;;6.40;;
3663;SDS011;1848;51.042;7.066;2022-07-11T03:27:08;8.30;;;6.03;;
3663;SDS011;1848;51.042;7.066;2022-07-11T03:29:38;7.40;;;6.60;;
3663;SDS011;1848;51.042;7.066;2022-07-11T03:32:05;8.50;;;6.60;;
3663;SDS011;1848;51.042;7.066;2022-07-11T03:34:32;7.97;;;6.47;;
3663;SDS011;1848;51.042;7.066;2022-07-11T03:36:59;8.60;;;6.17;;
3663;SDS011;1848;51.042;7.066;2022-07-11T03:39:25;8.60;;;6.37;;
3663;SDS011;1848;51.042;7.066;2022-07-11T03:41:52;7.10;;;5.80;;
3663;SDS011;1848;51.042;7.066;2022-07-11T03:44:19;7.90;;;6.10;;
3663;SDS011;1848;51.042;7.066;2022-07-11T03:46:46;7.77;;;6.13;;
3663;SDS011;1848;51.042;7.066;2022-07-11T03:49:12;10.03;;;6.93;;
3663;SDS011;1848;51.042;7.066;2022-07-11T03:51:38;6.20;;;5.60;;
3663;SDS011;1848;51.042;7.066;2022-07-11T03:54:05;7.37;;;5.10;;
3663;SDS011;1848;51.042;7.066;2022-07-11T03:56:32;10.50;;;6.00;;
3663;SDS011;1848;51.042;7.066;2022-07-11T03:58:58;8.60;;;6.23;;
3663;SDS011;1848;51.042;7.066;2022-07-11T04:01:24;9.20;;;6.03;;
3663;SDS011;1848;51.042;7.066;2022-07-11T04:03:51;8.60;;;6.20;;
3663;SDS011;1848;51.042;7.066;2022-07-11T04:06:18;9.10;;;6.50;;
3663;SDS011;1848;51.042;7.066;2022-07-11T04:08:44;11.10;;;5.97;;
3663;SDS011;1848;51.042;7.066;2022-07-11T04:11:11;9.23;;;5.43;;
3663;SDS011;1848;51.042;7.066;2022-07-11T04:13:38;7.17;;;5.50;;
3663;SDS011;1848;51.042;7.066;2022-07-11T04:16:05;7.37;;;6.03;;
3663;SDS011;1848;51.042;7.066;2022-07-11T04:18:32;10.60;;;5.90;;
3663;SDS011;1848;51.042;7.066;2022-07-11T04:20:58;7.17;;;5.90;;
3663;SDS011;1848;51.042;7.066;2022-07-11T04:23:33;8.37;;;5.70;;
3663;SDS011;1848;51.042;7.066;2022-07-11T04:25:59;13.37;;;6.50;;
3663;SDS011;1848;51.042;7.066;2022-07-11T04:28:25;6.50;;;5.80;;
3663;SDS011;1848;51.042;7.066;2022-07-11T04:30:52;6.60;;;5.20;;
3663;SDS011;1848;51.042;7.066;2022-07-11T04:33:18;7.33;;;5.77;;
3663;SDS011;1848;51.042;7.066;2022-07-11T04:35:45;8.70;;;6.30;;
3663;SDS011;1848;51.042;7.066;2022-07-11T04:38:11;6.30;;;5.03;;
3663;SDS011;1848;51.042;7.066;2022-07-11T04:40:37;6.10;;;5.50;;
3663;SDS011;1848;51.042;7.066;2022-07-11T04:43:04;10.07;;;6.00;;
3663;SDS011;1848;51.042;7.066;2022-07-11T04:45:31;7.07;;;5.07;;
3663;SDS011;1848;51.042;7.066;2022-07-11T04:47:57;6.13;;;5.37;;
3663;SDS011;1848;51.042;7.066;2022-07-11T04:50:25;10.23;;;5.87;;
3663;SDS011;1848;51.042;7.066;2022-07-11T04:52:51;7.43;;;5.27;;
3663;SDS011;1848;51.042;7.066;2022-07-11T04:55:18;6.00;;;5.37;;
3663;SDS011;1848;51.042;7.066;2022-07-11T04:57:44;7.83;;;5.50;;
3663;SDS011;1848;51.042;7.066;2022-07-11T05:00:11;7.37;;;4.80;;
3663;SDS011;1848;51.042;7.066;2022-07-11T05:02:38;6.73;;;4.90;;
3663;SDS011;1848;51.042;7.066;2022-07-11T05:05:04;10.13;;;5.60;;
3663;SDS011;1848;51.042;7.066;2022-07-11T05:07:31;7.67;;;5.27;;
3663;SDS011;1848;51.042;7.066;2022-07-11T05:09:57;7.87;;;5.60;;
3663;SDS011;1848;51.042;7.066;2022-07-11T05:12:24;7.07;;;5.20;;
3663;SDS011;1848;51.042;7.066;2022-07-11T05:14:50;7.53;;;5.07;;
3663;SDS011;1848;51.042;7.066;2022-07-11T05:17:17;7.73;;;4.87;;
3663;SDS011;1848;51.042;7.066;2022-07-11T05:19:43;9.00;;;5.47;;
3663;SDS011;1848;51.042;7.066;2022-07-11T05:22:10;14.13;;;5.30;;
3663;SDS011;1848;51.042;7.066;2022-07-11T05:24:36;6.77;;;4.83;;
3663;SDS011;1848;51.042;7.066;2022-07-11T05:27:03;5.00;;;4.20;;
3663;SDS011;1848;51.042;7.066;2022-07-11T05:29:29;10.10;;;5.30;;
3663;SDS011;1848;51.042;7.066;2022-07-11T05:31:56;6.57;;;4.70;;
3663;SDS011;1848;51.042;7.066;2022-07-11T05:34:22;9.70;;;5.03;;
3663;SDS011;1848;51.042;7.066;2022-07-11T05:36:51;8.17;;;5.17;;
3663;SDS011;1848;51.042;7.066;2022-07-11T05:39:19;11.33;;;4.53;;
3663;SDS011;1848;51.042;7.066;2022-07-11T05:41:45;7.20;;;4.93;;
3663;SDS011;1848;51.042;7.066;2022-07-11T05:44:12;11.40;;;5.13;;
3663;SDS011;1848;51.042;7.066;2022-07-11T05:46:38;11.60;;;5.50;;
3663;SDS011;1848;51.042;7.066;2022-07-11T05:49:06;7.53;;;4.17;;
3663;SDS011;1848;51.042;7.066;2022-07-11T05:51:36;9.47;;;4.67;;
3663;SDS011;1848;51.042;7.066;2022-07-11T05:54:02;6.50;;;4.90;;
3663;SDS011;1848;51.042;7.066;2022-07-11T05:56:29;11.50;;;4.40;;
3663;SDS011;1848;51.042;7.066;2022-07-11T05:58:56;7.63;;;4.70;;
3663;SDS011;1848;51.042;7.066;2022-07-11T06:01:23;5.60;;;4.47;;
3663;SDS011;1848;51.042;7.066;2022-07-11T06:03:51;6.63;;;4.57;;
3663;SDS011;1848;51.042;7.066;2022-07-11T06:06:17;5.40;;;3.90;;
3663;SDS011;1848;51.042;7.066;2022-07-11T06:08:44;7.23;;;3.43;;
3663;SDS011;1848;51.042;7.066;2022-07-11T06:11:12;8.30;;;4.20;;
3663;SDS011;1848;51.042;7.066;2022-07-11T06:13:40;7.00;;;3.80;;
3663;SDS011;1848;51.042;7.066;2022-07-11T06:16:08;4.43;;;3.47;;
3663;SDS011;1848;51.042;7.066;2022-07-11T06:18:35;3.70;;;3.30;;
3663;SDS011;1848;51.042;7.066;2022-07-11T06:21:02;7.60;;;3.57;;
3663;SDS011;1848;51.042;7.066;2022-07-11T06:23:29;4.60;;;2.93;;
3663;SDS011;1848;51.042;7.066;2022-07-11T06:25:56;3.33;;;3.03;;
3663;SDS011;1848;51.042;7.066;2022-07-11T06:28:23;8.03;;;3.40;;
3663;SDS011;1848;51.042;7.066;2022-07-11T06:30:49;4.57;;;3.20;;
3663;SDS011;1848;51.042;7.066;2022-07-11T06:33:16;4.40;;;2.90;;
3663;SDS011;1848;51.042;7.066;2022-07-11T06:35:46;4.93;;;2.60;;
3663;SDS011;1848;51.042;7.066;2022-07-11T06:38:13;2.70;;;2.50;;
3663;SDS011;1848;51.042;7.066;2022-07-11T06:40:41;5.47;;;3.30;;
3663;SDS011;1848;51.042;7.066;2022-07-11T06:43:09;6.40;;;3.00;;
3663;SDS011;1848;51.042;7.066;2022-07-11T06:45:35;5.10;;;2.80;;
3663;SDS011;1848;51.042;7.066;2022-07-11T06:48:02;6.73;;;3.30;;
3663;SDS011;1848;51.042;7.066;2022-07-11T06:50:30;8.67;;;4.80;;
3663;SDS011;1848;51.042;7.066;2022-07-11T06:52:57;5.60;;;5.00;;
3663;SDS011;1848;51.042;7.066;2022-07-11T06:55:24;8.43;;;6.03;;
3663;SDS011;1848;51.042;7.066;2022-07-11T06:57:50;8.30;;;5.60;;
3663;SDS011;1848;51.042;7.066;2022-07-11T07:00:37;5.93;;;5.30;;
3663;SDS011;1848;51.042;7.066;2022-07-11T07:03:03;7.47;;;6.77;;
3663;SDS011;1848;51.042;7.066;2022-07-11T07:05:43;6.43;;;5.83;;
3663;SDS011;1848;51.042;7.066;2022-07-11T07:08:10;6.80;;;5.23;;
3663;SDS011;1848;51.042;7.066;2022-07-11T07:10:37;4.63;;;4.10;;
3663;SDS011;1848;51.042;7.066;2022-07-11T07:13:03;5.27;;;3.77;;
3663;SDS011;1848;51.042;7.066;2022-07-11T07:15:30;4.57;;;3.57;;
3663;SDS011;1848;51.042;7.066;2022-07-11T07:17:56;3.17;;;2.87;;
3663;SDS011;1848;51.042;7.066;2022-07-11T07:20:28;4.00;;;3.00;;
3663;SDS011;1848;51.042;7.066;2022-07-11T07:22:55;3.47;;;3.07;;
3663;SDS011;1848;51.042;7.066;2022-07-11T07:25:22;4.50;;;3.20;;
3663;SDS011;1848;51.042;7.066;2022-07-11T07:27:48;3.17;;;2.87;;
3663;SDS011;1848;51.042;7.066;2022-07-11T07:30:15;3.80;;;3.30;;
3663;SDS011;1848;51.042;7.066;2022-07-11T07:32:41;4.10;;;3.10;;
3663;SDS011;1848;51.042;7.066;2022-07-11T07:35:08;3.70;;;3.00;;
3663;SDS011;1848;51.042;7.066;2022-07-11T07:37:34;4.93;;;3.40;;
3663;SDS011;1848;51.042;7.066;2022-07-11T07:40:00;4.43;;;3.43;;
3663;SDS011;1848;51.042;7.066;2022-07-11T07:42:27;4.67;;;4.17;;
3663;SDS011;1848;51.042;7.066;2022-07-11T07:44:53;6.30;;;5.73;;
3663;SDS011;1848;51.042;7.066;2022-07-11T07:47:20;9.87;;;6.37;;
3663;SDS011;1848;51.042;7.066;2022-07-11T07:49:46;10.90;;;9.03;;
3663;SDS011;1848;51.042;7.066;2022-07-11T07:52:13;12.63;;;10.07;;
3663;SDS011;1848;51.042;7.066;2022-07-11T07:54:39;13.20;;;10.33;;
3663;SDS011;1848;51.042;7.066;2022-07-11T07:57:06;58.30;;;20.20;;
3663;SDS011;1848;51.042;7.066;2022-07-11T07:59:32;11.60;;;8.50;;
3663;SDS011;1848;51.042;7.066;2022-07-11T08:01:59;10.90;;;8.60;;
3663;SDS011;1848;51.042;7.066;2022-07-11T08:04:25;11.70;;;9.80;;
3663;SDS011;1848;51.042;7.066;2022-07-11T08:06:52;11.47;;;10.20;;
3663;SDS011;1848;51.042;7.066;2022-07-11T08:09:18;11.87;;;10.67;;
3663;SDS011;1848;51.042;7.066;2022-07-11T08:11:47;12.87;;;10.70;;
3663;SDS011;1848;51.042;7.066;2022-07-11T08:14:14;13.57;;;10.30;;
3663;SDS011;1848;51.042;7.066;2022-07-11T08:16:40;12.73;;;11.37;;
3663;SDS011;1848;51.042;7.066;2022-07-11T08:19:07;21.83;;;15.10;;
3663;SDS011;1848;51.042;7.066;2022-07-11T08:21:35;19.83;;;16.37;;
3663;SDS011;1848;51.042;7.066;2022-07-11T08:24:01;18.87;;;16.83;;
3663;SDS011;1848;51.042;7.066;2022-07-11T08:26:28;19.40;;;17.30;;
3663;SDS011;1848;51.042;7.066;2022-07-11T08:29:00;20.37;;;18.30;;
3663;SDS011;1848;51.042;7.066;2022-07-11T08:31:27;20.53;;;18.50;;
3663;SDS011;1848;51.042;7.066;2022-07-11T08:33:53;18.90;;;17.00;;
3663;SDS011;1848;51.042;7.066;2022-07-11T08:36:20;17.70;;;15.90;;
3663;SDS011;1848;51.042;7.066;2022-07-11T08:38:46;16.30;;;14.60;;
3663;SDS011;1848;51.042;7.066;2022-07-11T08:41:13;15.97;;;14.27;;
3663;SDS011;1848;51.042;7.066;2022-07-11T08:43:41;17.97;;;16.17;;
3663;SDS011;1848;51.042;7.066;2022-07-11T08:46:09;16.70;;;15.00;;
3663;SDS011;1848;51.042;7.066;2022-07-11T08:48:38;17.70;;;15.80;;
3663;SDS011;1848;51.042;7.066;2022-07-11T08:51:08;17.57;;;15.77;;
3663;SDS011;1848;51.042;7.066;2022-07-11T08:53:37;18.10;;;16.30;;
3663;SDS011;1848;51.042;7.066;2022-07-11T08:56:07;18.67;;;16.70;;
3663;SDS011;1848;51.042;7.066;2022-07-11T08:58:37;17.77;;;16.00;;
3663;SDS011;1848;51.042;7.066;2022-07-11T09:01:05;18.27;;;16.47;;
3663;SDS011;1848;51.042;7.066;2022-07-11T09:03:32;18.13;;;15.93;;
3663;SDS011;1848;51.042;7.066;2022-07-11T09:06:01;16.50;;;14.90;;
3663;SDS011;1848;51.042;7.066;2022-07-11T09:08:29;18.63;;;16.80;;
3663;SDS011;1848;51.042;7.066;2022-07-11T09:10:57;18.87;;;16.80;;
3663;SDS011;1848;51.042;7.066;2022-07-11T09:13:27;18.77;;;16.80;;
3663;SDS011;1848;51.042;7.066;2022-07-11T09:16:00;19.10;;;17.20;;
3663;SDS011;1848;51.042;7.066;2022-07-11T09:18:36;18.93;;;17.03;;
3663;SDS011;1848;51.042;7.066;2022-07-11T09:21:09;19.10;;;17.20;;
3663;SDS011;1848;51.042;7.066;2022-07-11T09:23:56;18.70;;;16.63;;
3663;SDS011;1848;51.042;7.066;2022-07-11T09:26:43;20.73;;;18.73;;
3663;SDS011;1848;51.042;7.066;2022-07-11T09:29:19;20.20;;;18.20;;
3663;SDS011;1848;51.042;7.066;2022-07-11T09:31:48;22.17;;;19.97;;
3663;SDS011;1848;51.042;7.066;2022-07-11T09:34:19;21.70;;;19.40;;
3663;SDS011;1848;51.042;7.066;2022-07-11T09:36:53;21.10;;;19.00;;
3663;SDS011;1848;51.042;7.066;2022-07-11T09:39:22;19.97;;;17.87;;
3663;SDS011;1848;51.042;7.066;2022-07-11T09:41:50;20.53;;;18.53;;
3663;SDS011;1848;51.042;7.066;2022-07-11T09:44:19;30.23;;;19.10;;
3663;SDS011;1848;51.042;7.066;2022-07-11T09:46:46;21.00;;;18.13;;
3663;SDS011;1848;51.042;7.066;2022-07-11T09:49:16;21.23;;;18.93;;
3663;SDS011;1848;51.042;7.066;2022-07-11T09:51:43;20.20;;;18.10;;
3663;SDS011;1848;51.042;7.066;2022-07-11T09:54:10;20.47;;;18.47;;
3663;SDS011;1848;51.042;7.066;2022-07-11T09:56:41;20.23;;;18.20;;
3663;SDS011;1848;51.042;7.066;2022-07-11T09:59:24;21.10;;;18.90;;
3663;SDS011;1848;51.042;7.066;2022-07-11T10:01:51;18.97;;;17.10;;
3663;SDS011;1848;51.042;7.066;2022-07-11T10:04:17;18.90;;;17.00;;
3663;SDS011;1848;51.042;7.066;2022-07-11T10:06:44;17.67;;;16.07;;
3663;SDS011;1848;51.042;7.066;2022-07-11T10:09:11;18.10;;;16.40;;
3663;SDS011;1848;51.042;7.066;2022-07-11T10:11:37;17.40;;;15.73;;
3663;SDS011;1848;51.042;7.066;2022-07-11T10:14:04;17.20;;;15.70;;
3663;SDS011;1848;51.042;7.066;2022-07-11T10:16:48;18.70;;;16.90;;
3663;SDS011;1848;51.042;7.066;2022-07-11T10:19:25;17.63;;;16.03;;
3663;SDS011;1848;51.042;7.066;2022-07-11T10:25:04;16.97;;;15.47;;
3663;SDS011;1848;51.042;7.066;2022-07-11T10:28:03;17.67;;;16.07;;
3663;SDS011;1848;51.042;7.066;2022-07-11T10:30:48;16.50;;;15.10;;
3663;SDS011;1848;51.042;7.066;2022-07-11T10:33:16;18.13;;;16.33;;
3663;SDS011;1848;51.042;7.066;2022-07-11T10:35:46;18.33;;;16.60;;
3663;SDS011;1848;51.042;7.066;2022-07-11T10:38:14;18.27;;;16.50;;
3663;SDS011;1848;51.042;7.066;2022-07-11T10:40:41;16.90;;;15.30;;
3663;SDS011;1848;51.042;7.066;2022-07-11T10:46:00;18.27;;;16.53;;
3663;SDS011;1848;51.042;7.066;2022-07-11T10:48:29;17.90;;;16.20;;
3663;SDS011;1848;51.042;7.066;2022-07-11T10:53:26;16.47;;;14.90;;
3663;SDS011;1848;51.042;7.066;2022-07-11T10:59:15;19.20;;;17.20;;
3663;SDS011;1848;51.042;7.066;2022-07-11T11:02:07;17.60;;;15.90;;
3663;SDS011;1848;51.042;7.066;2022-07-11T11:07:29;17.37;;;15.67;;
3663;SDS011;1848;51.042;7.066;2022-07-11T11:15:44;16.40;;;13.37;;
3663;SDS011;1848;51.042;7.066;2022-07-11T11:23:36;14.80;;;13.50;;
3663;SDS011;1848;51.042;7.066;2022-07-11T11:26:04;13.60;;;12.20;;
3663;SDS011;1848;51.042;7.066;2022-07-11T11:28:36;12.70;;;11.50;;
3663;SDS011;1848;51.042;7.066;2022-07-11T11:31:05;14.03;;;12.83;;
3663;SDS011;1848;51.042;7.066;2022-07-11T11:33:33;13.73;;;12.53;;
3663;SDS011;1848;51.042;7.066;2022-07-11T11:36:02;14.43;;;13.23;;
3663;SDS011;1848;51.042;7.066;2022-07-11T11:38:32;13.27;;;11.90;;
3663;SDS011;1848;51.042;7.066;2022-07-11T11:41:00;12.53;;;11.43;;
3663;SDS011;1848;51.042;7.066;2022-07-11T11:43:27;10.87;;;9.97;;
3663;SDS011;1848;51.042;7.066;2022-07-11T11:45:54;12.00;;;10.90;;
3663;SDS011;1848;51.042;7.066;2022-07-11T11:48:27;12.10;;;11.00;;
3663;SDS011;1848;51.042;7.066;2022-07-11T11:53:35;12.20;;;11.10;;
3663;SDS011;1848;51.042;7.066;2022-07-11T11:58:43;12.00;;;11.10;;
3663;SDS011;1848;51.042;7.066;2022-07-11T12:01:10;9.67;;;8.77;;
3663;SDS011;1848;51.042;7.066;2022-07-11T12:06:17;12.93;;;9.77;;
3663;SDS011;1848;51.042;7.066;2022-07-11T12:08:48;8.70;;;7.80;;
3663;SDS011;1848;51.042;7.066;2022-07-11T12:11:15;9.70;;;7.60;;
3663;SDS011;1848;51.042;7.066;2022-07-11T12:13:43;7.63;;;6.93;;
3663;SDS011;1848;51.042;7.066;2022-07-11T12:16:14;8.40;;;7.80;;
3663;SDS011;1848;51.042;7.066;2022-07-11T12:19:02;10.17;;;9.37;;
3663;SDS011;1848;51.042;7.066;2022-07-11T12:21:29;12.63;;;11.37;;
3663;SDS011;1848;51.042;7.066;2022-07-11T12:23:58;11.23;;;10.23;;
3663;SDS011;1848;51.042;7.066;2022-07-11T12:26:27;9.60;;;8.80;;
3663;SDS011;1848;51.042;7.066;2022-07-11T12:29:02;8.53;;;7.83;;
3663;SDS011;1848;51.042;7.066;2022-07-11T12:34:19;4.90;;;4.37;;
3663;SDS011;1848;51.042;7.066;2022-07-11T12:36:48;3.77;;;3.30;;
3663;SDS011;1848;51.042;7.066;2022-07-11T12:39:24;4.13;;;3.83;;
3663;SDS011;1848;51.042;7.066;2022-07-11T12:41:52;4.23;;;3.83;;
3663;SDS011;1848;51.042;7.066;2022-07-11T12:47:14;3.97;;;3.67;;
3663;SDS011;1848;51.042;7.066;2022-07-11T12:49:42;3.00;;;2.80;;
3663;SDS011;1848;51.042;7.066;2022-07-11T12:52:12;3.10;;;2.90;;
3663;SDS011;1848;51.042;7.066;2022-07-11T12:54:39;3.87;;;3.57;;
3663;SDS011;1848;51.042;7.066;2022-07-11T12:57:06;3.63;;;3.40;;
3663;SDS011;1848;51.042;7.066;2022-07-11T12:59:34;4.40;;;4.00;;
3663;SDS011;1848;51.042;7.066;2022-07-11T13:02:02;3.90;;;3.60;;
3663;SDS011;1848;51.042;7.066;2022-07-11T13:04:40;3.90;;;3.60;;
3663;SDS011;1848;51.042;7.066;2022-07-11T13:07:42;4.40;;;4.00;;
3663;SDS011;1848;51.042;7.066;2022-07-11T13:10:21;4.00;;;3.70;;
3663;SDS011;1848;51.042;7.066;2022-07-11T13:12:49;4.37;;;3.97;;
3663;SDS011;1848;51.042;7.066;2022-07-11T13:15:18;5.40;;;4.67;;
3663;SDS011;1848;51.042;7.066;2022-07-11T13:17:46;4.23;;;3.70;;
3663;SDS011;1848;51.042;7.066;2022-07-11T13:20:19;4.90;;;4.50;;
3663;SDS011;1848;51.042;7.066;2022-07-11T13:22:48;4.20;;;3.87;;
3663;SDS011;1848;51.042;7.066;2022-07-11T13:25:17;7.20;;;4.63;;
3663;SDS011;1848;51.042;7.066;2022-07-11T13:27:45;5.70;;;5.30;;
3663;SDS011;1848;51.042;7.066;2022-07-11T13:30:14;5.33;;;4.93;;
3663;SDS011;1848;51.042;7.066;2022-07-11T13:32:43;4.80;;;4.37;;
3663;SDS011;1848;51.042;7.066;2022-07-11T13:35:10;6.90;;;5.47;;
3663;SDS011;1848;51.042;7.066;2022-07-11T13:37:42;5.80;;;5.30;;
3663;SDS011;1848;51.042;7.066;2022-07-11T13:40:10;6.30;;;5.77;;
3663;SDS011;1848;51.042;7.066;2022-07-11T13:42:40;6.03;;;5.53;;
3663;SDS011;1848;51.042;7.066;2022-07-11T13:45:08;7.40;;;6.47;;
3663;SDS011;1848;51.042;7.066;2022-07-11T13:47:35;8.60;;;7.80;;
3663;SDS011;1848;51.042;7.066;2022-07-11T13:50:02;9.07;;;8.27;;
3663;SDS011;1848;51.042;7.066;2022-07-11T13:52:29;9.80;;;9.00;;
3663;SDS011;1848;51.042;7.066;2022-07-11T13:54:55;10.30;;;9.30;;
3663;SDS011;1848;51.042;7.066;2022-07-11T13:57:22;9.37;;;8.57;;
3663;SDS011;1848;51.042;7.066;2022-07-11T13:59:49;10.03;;;9.17;;
3663;SDS011;1848;51.042;7.066;2022-07-11T14:02:16;11.87;;;9.47;;
3663;SDS011;1848;51.042;7.066;2022-07-11T14:04:43;10.10;;;9.20;;
3663;SDS011;1848;51.042;7.066;2022-07-11T14:07:10;11.13;;;10.03;;
3663;SDS011;1848;51.042;7.066;2022-07-11T14:09:40;11.03;;;10.13;;
3663;SDS011;1848;51.042;7.066;2022-07-11T14:12:07;12.10;;;11.10;;
3663;SDS011;1848;51.042;7.066;2022-07-11T14:14:34;13.77;;;12.50;;
3663;SDS011;1848;51.042;7.066;2022-07-11T14:17:02;14.20;;;12.90;;
3663;SDS011;1848;51.042;7.066;2022-07-11T14:19:29;14.17;;;12.93;;
3663;SDS011;1848;51.042;7.066;2022-07-11T14:21:59;14.10;;;12.90;;
3663;SDS011;1848;51.042;7.066;2022-07-11T14:24:25;13.43;;;12.33;;
3663;SDS011;1848;51.042;7.066;2022-07-11T14:26:52;13.97;;;12.77;;
3663;SDS011;1848;51.042;7.066;2022-07-11T14:29:19;12.67;;;11.67;;
3663;SDS011;1848;51.042;7.066;2022-07-11T14:31:45;12.10;;;11.10;;
3663;SDS011;1848;51.042;7.066;2022-07-11T14:34:12;12.10;;;11.10;;
3663;SDS011;1848;51.042;7.066;2022-07-11T14:36:38;12.23;;;11.23;;
3663;SDS011;1848;51.042;7.066;2022-07-11T14:39:04;13.23;;;11.93;;
3663;SDS011;1848;51.042;7.066;2022-07-11T14:41:31;12.40;;;11.50;;
3663;SDS011;1848;51.042;7.066;2022-07-11T14:43:57;12.03;;;10.90;;
3663;SDS011;1848;51.042;7.066;2022-07-11T14:46:24;11.90;;;10.90;;
3663;SDS011;1848;51.042;7.066;2022-07-11T14:48:50;11.37;;;10.37;;
3663;SDS011;1848;51.042;7.066;2022-07-11T14:51:17;11.70;;;10.80;;
3663;SDS011;1848;51.042;7.066;2022-07-11T14:54:03;13.07;;;11.83;;
3663;SDS011;1848;51.042;7.066;2022-07-11T14:56:29;12.67;;;11.40;;
3663;SDS011;1848;51.042;7.066;2022-07-11T14:58:59;14.27;;;13.03;;
3663;SDS011;1848;51.042;7.066;2022-07-11T15:01:26;15.57;;;14.27;;
3663;SDS011;1848;51.042;7.066;2022-07-11T15:03:53;15.97;;;14.47;;
3663;SDS011;1848;51.042;7.066;2022-07-11T15:06:21;16.30;;;14.80;;
3663;SDS011;1848;51.042;7.066;2022-07-11T15:09:07;16.17;;;14.50;;
3663;SDS011;1848;51.042;7.066;2022-07-11T15:11:52;16.27;;;14.77;;
3663;SDS011;1848;51.042;7.066;2022-07-11T15:14:36;16.97;;;15.30;;
3663;SDS011;1848;51.042;7.066;2022-07-11T15:17:03;17.80;;;16.30;;
3663;SDS011;1848;51.042;7.066;2022-07-11T15:19:29;18.70;;;17.10;;
3663;SDS011;1848;51.042;7.066;2022-07-11T15:21:56;17.37;;;15.63;;
3663;SDS011;1848;51.042;7.066;2022-07-11T15:24:22;18.93;;;17.30;;
3663;SDS011;1848;51.042;7.066;2022-07-11T15:26:49;18.80;;;17.20;;
3663;SDS011;1848;51.042;7.066;2022-07-11T15:29:15;22.10;;;20.10;;
3663;SDS011;1848;51.042;7.066;2022-07-11T15:31:41;23.30;;;21.30;;
3663;SDS011;1848;51.042;7.066;2022-07-11T15:34:08;22.60;;;20.57;;
3663;SDS011;1848;51.042;7.066;2022-07-11T15:36:35;22.07;;;20.00;;
3663;SDS011;1848;51.042;7.066;2022-07-11T15:39:01;21.90;;;19.87;;
3663;SDS011;1848;51.042;7.066;2022-07-11T15:41:28;23.67;;;21.47;;
3663;SDS011;1848;51.042;7.066;2022-07-11T15:43:54;21.60;;;19.60;;
3663;SDS011;1848;51.042;7.066;2022-07-11T15:46:21;21.97;;;20.07;;
3663;SDS011;1848;51.042;7.066;2022-07-11T15:48:48;21.70;;;19.80;;
3663;SDS011;1848;51.042;7.066;2022-07-11T15:51:14;21.40;;;19.70;;